Time;durP1;ratioP1;P1;durP2;ratioP2;P2;SDS_P1;SDS_P2;PMS_P1;PMS_P2;Temp;Humidity;BMP_temperature;BMP_pressure;BME280_temperature;BME280_humidity;BME280_pressure;Samples;Min_cycle;Max_cycle;Signal;HPM_P1;HPM_P2
2024/01/23 00:02:20;;;;;;;9.95;6.60;;;-5.60;97.90;;;;;;5049620;28;20044;-79
2024/01/23 00:04:46;;;;;;;11.55;6.15;;;-5.60;97.90;;;;;;5051440;28;20474;-78
2024/01/23 00:07:12;;;;;;;8.35;5.95;;;-5.60;98.00;;;;;;5041223;28;20045;-78
2024/01/23 00:09:38;;;;;;;9.43;6.97;;;-5.70;97.90;;;;;;5051853;28;20390;-80
2024/01/23 00:12:05;;;;;;;12.02;5.75;;;-5.60;98.00;;;;;;5052567;28;20025;-80
2024/01/23 00:14:32;;;;;;;11.18;6.63;;;-5.60;97.90;;;;;;5046601;28;20017;-79
2024/01/23 00:16:58;;;;;;;11.35;6.75;;;-5.60;97.90;;;;;;5052417;28;20070;-79
2024/01/23 00:19:23;;;;;;;14.45;8.15;;;-5.60;97.90;;;;;;5048167;28;20367;-79
2024/01/23 00:21:49;;;;;;;9.93;5.75;;;-5.60;98.00;;;;;;5050223;28;20029;-80
2024/01/23 00:24:15;;;;;;;13.32;6.72;;;-5.60;98.10;;;;;;5034480;28;20119;-80
2024/01/23 00:26:41;;;;;;;9.73;6.05;;;-5.60;98.20;;;;;;5052333;28;20021;-80
2024/01/23 00:29:07;;;;;;;14.07;7.85;;;-5.60;98.20;;;;;;5052260;28;20475;-80
2024/01/23 00:31:34;;;;;;;12.90;6.07;;;-5.50;98.10;;;;;;5046811;28;20088;-78
2024/01/23 00:34:00;;;;;;;13.23;6.90;;;-5.50;98.00;;;;;;5050957;28;20104;-81
2024/01/23 00:36:26;;;;;;;10.52;6.63;;;-5.50;98.00;;;;;;5052405;28;20143;-81
2024/01/23 00:38:52;;;;;;;9.35;6.20;;;-5.50;97.90;;;;;;5052247;28;20017;-81
2024/01/23 00:41:17;;;;;;;16.05;6.20;;;-5.50;97.90;;;;;;5033177;28;20386;-80
2024/01/23 00:43:43;;;;;;;8.57;6.38;;;-5.50;97.90;;;;;;5034498;28;20029;-80
2024/01/23 00:46:09;;;;;;;12.52;6.25;;;-5.40;97.90;;;;;;5051978;28;20088;-80
2024/01/23 00:48:35;;;;;;;14.10;6.60;;;-5.40;97.90;;;;;;5052172;28;20489;-80
2024/01/23 00:51:01;;;;;;;16.58;6.60;;;-5.40;97.80;;;;;;5052075;28;20033;-81
2024/01/23 00:53:26;;;;;;;12.65;7.00;;;-5.40;97.90;;;;;;5052257;28;20492;-80
2024/01/23 00:55:52;;;;;;;12.45;7.00;;;-5.40;98.00;;;;;;5045424;28;20018;-79
2024/01/23 00:58:18;;;;;;;14.57;7.57;;;-5.30;97.90;;;;;;5051918;28;20441;-80
2024/01/23 01:00:44;;;;;;;13.90;7.20;;;-5.30;97.80;;;;;;5043403;28;20028;-79
2024/01/23 01:03:13;;;;;;;12.35;6.75;;;-5.40;97.70;;;;;;5054406;28;20060;-79
2024/01/23 01:05:39;;;;;;;15.20;5.68;;;-5.30;97.80;;;;;;5044269;28;20025;-80
2024/01/23 01:08:05;;;;;;;8.27;6.55;;;-5.30;97.70;;;;;;5049154;28;20385;-79
2024/01/23 01:10:31;;;;;;;15.90;8.73;;;-5.30;97.60;;;;;;5034103;28;20075;-80
2024/01/23 01:12:57;;;;;;;18.70;9.73;;;-5.20;97.90;;;;;;5052169;28;20020;-81
2024/01/23 01:15:23;;;;;;;12.55;8.30;;;-5.20;97.90;;;;;;5050839;28;20083;-81
2024/01/23 01:17:48;;;;;;;12.35;7.07;;;-5.10;97.50;;;;;;5049660;28;20024;-80
2024/01/23 01:20:15;;;;;;;7.63;5.55;;;-5.20;97.60;;;;;;5052038;28;20467;-80
2024/01/23 01:22:41;;;;;;;15.15;7.72;;;-5.20;97.50;;;;;;5052003;28;20025;-80
2024/01/23 01:25:08;;;;;;;15.20;9.07;;;-5.20;97.70;;;;;;5051773;28;20387;-80
2024/01/23 01:27:34;;;;;;;13.93;8.00;;;-5.10;97.40;;;;;;5051988;28;20075;-81
2024/01/23 01:30:02;;;;;;;13.82;8.93;;;-5.10;97.60;;;;;;5053533;28;20060;-81
2024/01/23 01:32:27;;;;;;;;;;;-5.10;97.70;;;;;;5056038;28;20023;-80
2024/01/23 01:34:53;;;;;;;12.38;7.78;;;-5.10;97.60;;;;;;5050249;28;19909;-80
2024/01/23 01:37:19;;;;;;;8.20;5.10;;;-5.10;97.50;;;;;;5054542;28;20053;-81
2024/01/23 01:39:45;;;;;;;13.13;6.43;;;-5.00;97.60;;;;;;5037799;28;20025;-80
2024/01/23 01:42:11;;;;;;;9.30;6.55;;;-5.10;97.40;;;;;;5055518;28;20068;-81
2024/01/23 01:44:37;;;;;;;12.70;8.55;;;-5.10;97.40;;;;;;5055033;28;20072;-81
2024/01/23 01:47:03;;;;;;;15.68;7.78;;;-5.10;97.40;;;;;;5037587;28;20040;-82
2024/01/23 01:49:32;;;;;;;12.95;6.63;;;-5.00;97.50;;;;;;5055452;28;20028;-81
2024/01/23 01:51:58;;;;;;;15.93;9.75;;;-5.00;97.50;;;;;;5045453;28;20467;-79
2024/01/23 01:54:25;;;;;;;17.55;10.30;;;-5.00;97.40;;;;;;5051803;28;20060;-80
2024/01/23 01:56:52;;;;;;;;;;;-5.00;97.40;;;;;;5055106;28;20021;-81
2024/01/23 01:59:20;;;;;;;18.33;9.48;;;-5.00;97.50;;;;;;5055957;28;20327;-81
2024/01/23 02:01:46;;;;;;;11.65;5.88;;;-5.00;97.40;;;;;;5060630;28;20040;-81
2024/01/23 02:04:13;;;;;;;9.57;7.00;;;-5.00;97.40;;;;;;5055611;28;20021;-81
2024/01/23 02:06:38;;;;;;;11.55;7.30;;;-5.00;97.60;;;;;;5052223;28;20097;-80
2024/01/23 02:09:04;;;;;;;12.20;6.50;;;-4.90;97.70;;;;;;5034903;28;20037;-81
2024/01/23 02:11:30;;;;;;;11.65;7.75;;;-4.90;97.50;;;;;;5052412;28;20017;-82
2024/01/23 02:13:57;;;;;;;13.20;8.43;;;-5.00;97.60;;;;;;5056635;28;20079;-81
2024/01/23 02:16:23;;;;;;;16.80;9.13;;;-4.90;97.80;;;;;;5055440;28;20112;-80
2024/01/23 02:18:48;;;;;;;14.02;8.45;;;-4.90;97.70;;;;;;5056327;28;20381;-80
2024/01/23 02:21:15;;;;;;;14.88;8.05;;;-4.90;97.70;;;;;;5040971;28;20045;-80
2024/01/23 02:23:42;;;;;;;12.75;6.90;;;-4.90;97.40;;;;;;5063732;28;20025;-80
2024/01/23 02:26:07;;;;;;;8.10;5.53;;;-4.90;97.50;;;;;;5061373;28;20021;-80
2024/01/23 02:28:33;;;;;;;14.15;8.75;;;-4.90;97.40;;;;;;5064239;28;20123;-78
2024/01/23 02:30:59;;;;;;;13.77;6.78;;;-4.90;97.50;;;;;;5055472;28;20044;-79
2024/01/23 02:33:25;;;;;;;10.25;6.20;;;-4.90;97.60;;;;;;5055425;28;20029;-80
2024/01/23 02:35:51;;;;;;;12.80;8.65;;;-4.90;97.70;;;;;;5054573;28;20481;-81
2024/01/23 02:38:17;;;;;;;17.77;9.43;;;-4.90;97.50;;;;;;5054295;28;20029;-79
2024/01/23 02:40:42;;;;;;;17.80;8.68;;;-4.90;97.50;;;;;;5054000;28;20017;-80
2024/01/23 02:43:08;;;;;;;14.20;6.88;;;-4.90;97.60;;;;;;5053321;28;20036;-80
2024/01/23 02:45:34;;;;;;;19.10;10.57;;;-4.90;97.70;;;;;;5056077;28;20037;-80
2024/01/23 02:48:00;;;;;;;14.10;7.70;;;-4.90;97.60;;;;;;5056309;28;20033;-80
2024/01/23 02:50:28;;;;;;;17.42;9.52;;;-4.90;97.70;;;;;;5033447;28;20540;-81
2024/01/23 02:52:54;;;;;;;13.70;8.00;;;-4.80;97.80;;;;;;5044568;28;20021;-80
2024/01/23 02:55:20;;;;;;;14.38;8.32;;;-4.80;97.60;;;;;;5037098;28;20023;-81
2024/01/23 02:57:46;;;;;;;23.20;12.13;;;-4.90;97.50;;;;;;5050628;28;20389;-81
2024/01/23 03:00:12;;;;;;;15.77;9.57;;;-4.90;97.60;;;;;;5035948;28;20025;-80
2024/01/23 03:02:37;;;;;;;16.08;6.85;;;-4.80;97.70;;;;;;5048709;28;20039;-80
2024/01/23 03:05:03;;;;;;;13.40;8.23;;;-4.80;97.70;;;;;;5053840;28;20099;-79
2024/01/23 03:07:29;;;;;;;15.45;8.68;;;-4.90;97.50;;;;;;5053518;28;20032;-81
2024/01/23 03:09:55;;;;;;;18.02;7.75;;;-4.90;97.70;;;;;;5053998;28;20025;-80
2024/01/23 03:12:22;;;;;;;19.75;9.23;;;-4.90;97.40;;;;;;5035952;28;20405;-80
2024/01/23 03:14:49;;;;;;;10.88;6.80;;;-4.90;97.60;;;;;;5053641;28;20070;-80
2024/01/23 03:17:16;;;;;;;16.85;7.63;;;-4.90;97.70;;;;;;5035562;28;20020;-78
2024/01/23 03:19:42;;;;;;;18.55;10.35;;;-4.90;97.80;;;;;;5053099;28;20021;-79
2024/01/23 03:22:09;;;;;;;13.73;9.15;;;-4.90;97.80;;;;;;5035452;28;20112;-80
2024/01/23 03:24:38;;;;;;;9.73;4.97;;;-4.90;97.80;;;;;;5053602;28;20021;-80
2024/01/23 03:27:06;;;;;;;15.20;7.35;;;-4.80;97.70;;;;;;5053786;28;20262;-80
2024/01/23 03:29:42;;;;;;;15.73;8.43;;;-4.90;97.60;;;;;;5035691;28;20037;-80
2024/01/23 03:32:08;;;;;;;13.93;7.10;;;-4.90;97.70;;;;;;5053483;28;20013;-81
2024/01/23 03:34:34;;;;;;;17.40;8.77;;;-4.90;97.70;;;;;;5035471;28;20025;-79
2024/01/23 03:37:01;;;;;;;18.13;9.30;;;-4.90;97.60;;;;;;5052907;28;20028;-81
2024/01/23 03:39:27;;;;;;;13.98;9.02;;;-4.90;97.80;;;;;;5035409;28;20025;-79
2024/01/23 03:41:53;;;;;;;23.40;10.15;;;-4.80;97.90;;;;;;5035458;28;20029;-80
2024/01/23 03:44:21;;;;;;;17.77;9.00;;;-4.80;97.90;;;;;;5053068;28;20067;-80
2024/01/23 03:46:47;;;;;;;11.98;7.95;;;-4.70;98.20;;;;;;5049903;28;20061;-80
2024/01/23 03:49:18;;;;;;;22.45;9.25;;;-4.70;97.80;;;;;;5034998;28;20036;-81
2024/01/23 03:51:44;;;;;;;18.35;9.85;;;-4.70;97.80;;;;;;5035403;28;20425;-80
2024/01/23 03:54:10;;;;;;;11.88;6.35;;;-4.70;98.00;;;;;;5053114;28;20021;-81
2024/01/23 03:56:36;;;;;;;12.43;8.38;;;-4.70;97.40;;;;;;5053876;28;20024;-82
2024/01/23 03:59:02;;;;;;;13.68;8.57;;;-4.80;97.50;;;;;;5043007;28;20417;-82
2024/01/23 04:01:28;;;;;;;13.35;8.85;;;-4.80;97.60;;;;;;5037954;28;20090;-81
2024/01/23 04:03:54;;;;;;;21.58;7.40;;;-4.80;97.60;;;;;;5057116;28;20024;-81
2024/01/23 04:06:20;;;;;;;15.88;8.73;;;-4.80;97.70;;;;;;5052917;28;20025;-80
2024/01/23 04:08:46;;;;;;;17.15;9.20;;;-4.80;97.70;;;;;;5055319;28;20488;-81
2024/01/23 04:11:11;;;;;;;20.02;10.23;;;-4.80;97.70;;;;;;5053329;28;20016;-82
2024/01/23 04:13:37;;;;;;;21.20;9.25;;;-4.80;97.80;;;;;;5052789;28;20056;-83
2024/01/23 04:16:06;;;;;;;17.73;9.80;;;-4.70;97.80;;;;;;5052959;28;20470;-81
2024/01/23 04:18:32;;;;;;;20.60;10.02;;;-4.80;97.50;;;;;;5052949;28;20496;-83
2024/01/23 04:20:58;;;;;;;16.77;11.13;;;-4.70;97.80;;;;;;5045156;28;20021;-80
2024/01/23 04:23:24;;;;;;;17.70;9.82;;;-4.70;97.80;;;;;;5053611;28;20100;-82
2024/01/23 04:25:50;;;;;;;13.88;8.52;;;-4.80;97.70;;;;;;5035164;28;20495;-81
2024/01/23 04:28:16;;;;;;;14.85;8.65;;;-4.80;97.80;;;;;;5058261;28;20120;-81
2024/01/23 04:30:42;;;;;;;15.10;9.50;;;-4.80;97.90;;;;;;5053259;28;20028;-81
2024/01/23 04:33:08;;;;;;;17.98;9.60;;;-4.80;97.70;;;;;;5054587;28;20075;-82
2024/01/23 04:35:34;;;;;;;14.88;8.32;;;-4.80;97.80;;;;;;5047372;28;20032;-81
2024/01/23 04:38:00;;;;;;;17.10;10.35;;;-4.80;97.90;;;;;;5043393;28;20029;-82
2024/01/23 04:40:26;;;;;;;14.65;7.93;;;-4.80;98.00;;;;;;5052609;28;20025;-80
2024/01/23 04:42:52;;;;;;;17.83;9.07;;;-4.80;98.00;;;;;;5052547;28;20024;-82
2024/01/23 04:45:18;;;;;;;13.50;7.25;;;-4.80;97.90;;;;;;5052363;28;20055;-83
2024/01/23 04:47:43;;;;;;;15.20;9.43;;;-4.80;98.00;;;;;;5052528;28;20044;-82
2024/01/23 04:50:10;;;;;;;19.95;10.43;;;-4.70;98.10;;;;;;5053321;28;20071;-81
2024/01/23 04:52:35;;;;;;;12.63;9.75;;;-4.70;98.10;;;;;;5052727;28;20025;-82
2024/01/23 04:55:02;;;;;;;16.92;9.65;;;-4.70;98.10;;;;;;5053118;28;20040;-82
2024/01/23 04:57:31;;;;;;;20.13;9.80;;;-4.70;98.30;;;;;;5053554;28;20021;-83
2024/01/23 05:00:01;;;;;;;21.63;8.70;;;-4.70;98.00;;;;;;5054033;28;20021;-83
2024/01/23 05:02:27;;;;;;;19.80;11.60;;;-4.70;98.10;;;;;;5028318;28;20441;-83
2024/01/23 05:04:53;;;;;;;12.90;8.52;;;-4.70;98.20;;;;;;5050694;28;20021;-81
2024/01/23 05:07:19;;;;;;;11.95;7.40;;;-4.70;98.10;;;;;;5038442;28;20120;-83
2024/01/23 05:09:45;;;;;;;17.55;9.18;;;-4.70;98.20;;;;;;5056683;28;20075;-84
2024/01/23 05:12:11;;;;;;;12.25;6.18;;;-4.70;98.10;;;;;;5050103;28;20029;-79
2024/01/23 05:14:37;;;;;;;19.45;9.45;;;-4.70;98.20;;;;;;5055972;28;20029;-80
2024/01/23 05:17:02;;;;;;;17.92;9.77;;;-4.70;98.20;;;;;;5047979;28;20466;-80
2024/01/23 05:19:30;;;;;;;15.80;8.65;;;-4.70;98.20;;;;;;5037058;28;20120;-80
2024/01/23 05:21:56;;;;;;;16.58;8.07;;;-4.70;98.40;;;;;;5055630;28;20047;-80
2024/01/23 05:24:22;;;;;;;17.73;11.40;;;-4.70;98.40;;;;;;5038195;28;20386;-81
2024/01/23 05:26:47;;;;;;;22.92;11.60;;;-4.70;98.50;;;;;;5053860;28;20037;-80
2024/01/23 05:29:13;;;;;;;15.63;9.15;;;-4.60;98.60;;;;;;5036775;28;20045;-81
2024/01/23 05:31:39;;;;;;;18.25;10.27;;;-4.60;98.50;;;;;;5054101;28;20052;-80
2024/01/23 05:34:05;;;;;;;19.77;10.77;;;-4.60;98.60;;;;;;5043923;28;20120;-79
2024/01/23 05:36:31;;;;;;;20.15;13.13;;;-4.60;98.70;;;;;;5057244;28;20029;-80
2024/01/23 05:38:57;;;;;;;19.98;10.57;;;-4.60;98.70;;;;;;5049836;28;20398;-80
2024/01/23 05:41:23;;;;;;;13.98;9.35;;;-4.60;98.80;;;;;;5053969;28;20025;-80
2024/01/23 05:43:50;;;;;;;17.45;9.90;;;-4.60;98.90;;;;;;5054292;28;20017;-83
2024/01/23 05:46:17;;;;;;;21.40;12.65;;;-4.70;99.10;;;;;;5027743;28;20033;-79
2024/01/23 05:48:43;;;;;;;13.10;7.97;;;-4.70;99.10;;;;;;5043466;28;20029;-83
2024/01/23 05:51:09;;;;;;;16.85;8.77;;;-4.70;99.20;;;;;;5040097;28;20541;-81
2024/01/23 05:53:36;;;;;;;18.42;11.20;;;-4.70;99.30;;;;;;5039101;28;20102;-83
2024/01/23 05:56:02;;;;;;;20.40;9.68;;;-4.70;99.30;;;;;;5031271;28;20036;-81
2024/01/23 05:58:28;;;;;;;21.60;13.02;;;-4.70;99.20;;;;;;5033968;28;20036;-81
2024/01/23 06:00:54;;;;;;;20.38;12.00;;;-4.70;99.30;;;;;;5032747;28;20018;-83
2024/01/23 06:03:20;;;;;;;19.17;10.02;;;-4.60;99.00;;;;;;5028740;28;20029;-81
2024/01/23 06:05:45;;;;;;;20.58;10.05;;;-4.60;98.80;;;;;;5029090;28;20472;-80
2024/01/23 06:08:14;;;;;;;13.60;10.27;;;-4.60;98.90;;;;;;5025737;28;20390;-82
2024/01/23 06:10:40;;;;;;;19.77;10.00;;;-4.60;98.70;;;;;;5025558;28;20026;-83
2024/01/23 06:13:06;;;;;;;21.33;11.32;;;-4.60;98.50;;;;;;5035502;28;20041;-82
2024/01/23 06:15:32;;;;;;;15.20;12.20;;;-4.60;98.80;;;;;;5027752;28;20076;-82
2024/01/23 06:18:00;;;;;;;18.42;11.02;;;-4.50;98.80;;;;;;5024749;28;20053;-83
2024/01/23 06:20:26;;;;;;;24.10;13.90;;;-4.50;98.80;;;;;;5023737;28;20352;-82
2024/01/23 06:22:52;;;;;;;21.25;11.23;;;-4.40;98.90;;;;;;5023851;28;20116;-82
2024/01/23 06:25:18;;;;;;;16.52;8.38;;;-4.40;98.70;;;;;;5032370;28;20550;-85
2024/01/23 06:27:44;;;;;;;19.73;10.15;;;-4.40;98.50;;;;;;5025611;28;20025;-84
2024/01/23 06:30:13;;;;;;;21.33;12.32;;;-4.40;98.50;;;;;;5035793;28;20033;-83
2024/01/23 06:32:39;;;;;;;15.23;8.18;;;-4.40;98.60;;;;;;5017520;28;20021;-81
2024/01/23 06:35:06;;;;;;;16.77;10.70;;;-4.30;98.70;;;;;;5035110;28;20018;-82
2024/01/23 06:37:32;;;;;;;18.52;9.77;;;-4.40;98.40;;;;;;5014338;28;20029;-82
2024/01/23 06:39:58;;;;;;;28.40;14.55;;;-4.30;98.60;;;;;;5009334;28;20378;-82
2024/01/23 06:42:24;;;;;;;18.95;9.10;;;-4.40;98.50;;;;;;5034789;28;20036;-84
2024/01/23 06:44:49;;;;;;;20.42;10.95;;;-4.30;98.40;;;;;;5042879;28;20048;-84
2024/01/23 06:47:17;;;;;;;24.77;11.70;;;-4.30;98.40;;;;;;5035880;28;20111;-84
2024/01/23 06:49:43;;;;;;;20.90;13.60;;;-4.30;98.40;;;;;;5036809;28;20040;-83
2024/01/23 06:52:08;;;;;;;17.77;11.40;;;-4.30;98.60;;;;;;5054423;28;20025;-83
2024/01/23 06:54:34;;;;;;;22.15;12.45;;;-4.20;98.50;;;;;;5043788;28;20528;-84
2024/01/23 06:57:00;;;;;;;17.75;10.52;;;-4.20;98.40;;;;;;5054401;28;20107;-83
2024/01/23 06:59:27;;;;;;;26.90;10.40;;;-4.30;98.30;;;;;;5054305;28;20048;-84
2024/01/23 07:01:53;;;;;;;13.18;9.02;;;-4.20;98.50;;;;;;5055536;28;20540;-83
2024/01/23 07:04:19;;;;;;;26.45;13.35;;;-4.30;98.50;;;;;;5048770;28;20044;-82
2024/01/23 07:06:45;;;;;;;12.32;7.82;;;-4.30;98.60;;;;;;5053239;28;20024;-84
2024/01/23 07:09:11;;;;;;;18.95;10.63;;;-4.30;98.70;;;;;;5054140;28;20043;-84
2024/01/23 07:11:41;;;;;;;22.25;14.43;;;-4.20;98.80;;;;;;5046027;28;20021;-82
2024/01/23 07:14:07;;;;;;;23.27;10.93;;;-4.20;98.80;;;;;;5051863;28;20029;-84
2024/01/23 07:16:33;;;;;;;13.98;8.05;;;-4.10;98.60;;;;;;5047702;28;20088;-85
2024/01/23 07:18:59;;;;;;;23.67;12.60;;;-4.20;98.40;;;;;;5031751;28;20036;-80
2024/01/23 07:21:25;;;;;;;20.20;10.10;;;-4.20;98.50;;;;;;5036061;28;20453;-84
2024/01/23 07:23:51;;;;;;;15.82;10.95;;;-4.20;98.60;;;;;;5052718;28;20025;-82
2024/01/23 07:26:17;;;;;;;25.48;14.38;;;-4.20;98.30;;;;;;5036726;28;20064;-83
2024/01/23 07:28:43;;;;;;;28.08;17.05;;;-4.20;98.50;;;;;;5050237;28;20393;-85
2024/01/23 07:31:11;;;;;;;27.45;14.63;;;-4.10;98.70;;;;;;5054172;28;20017;-82
2024/01/23 07:33:37;;;;;;;19.17;11.10;;;-4.10;98.50;;;;;;5043783;28;20487;-83
2024/01/23 07:36:03;;;;;;;26.35;14.75;;;-4.10;98.60;;;;;;5035739;28;20021;-81
2024/01/23 07:38:29;;;;;;;13.82;9.68;;;-4.00;98.60;;;;;;5055617;28;20147;-82
2024/01/23 07:40:55;;;;;;;21.73;12.63;;;-3.90;98.50;;;;;;5053406;28;20013;-78
2024/01/23 07:43:25;;;;;;;24.92;14.82;;;-4.00;98.40;;;;;;5053401;28;20071;-83
2024/01/23 07:45:51;;;;;;;27.00;13.48;;;-4.00;98.40;;;;;;5032355;28;20080;-83
2024/01/23 07:48:17;;;;;;;23.70;13.35;;;-4.00;98.40;;;;;;5032213;28;20036;-81
2024/01/23 07:50:43;;;;;;;27.73;13.00;;;-4.00;98.10;;;;;;5033584;28;20389;-84
2024/01/23 07:53:09;;;;;;;25.67;12.63;;;-4.00;98.20;;;;;;5041221;28;20129;-84
2024/01/23 07:55:35;;;;;;;12.25;8.45;;;-4.00;98.00;;;;;;5036428;28;20144;-83
2024/01/23 07:58:03;;;;;;;17.85;10.88;;;-4.00;98.30;;;;;;5034080;28;20029;-83
2024/01/23 08:00:29;;;;;;;19.65;12.45;;;-4.10;98.30;;;;;;5029965;28;20049;-86
2024/01/23 08:02:55;;;;;;;17.30;11.07;;;-4.10;98.20;;;;;;5032529;28;20021;-86
2024/01/23 08:05:21;;;;;;;31.10;18.17;;;-4.10;98.40;;;;;;5030248;28;20433;-83
2024/01/23 08:07:48;;;;;;;34.03;14.90;;;-4.00;98.50;;;;;;5032570;28;20022;-83
2024/01/23 08:10:14;;;;;;;28.98;13.93;;;-3.90;98.50;;;;;;5033366;28;20017;-84
2024/01/23 08:12:40;;;;;;;23.83;12.90;;;-3.90;98.30;;;;;;5033066;28;20029;-83
2024/01/23 08:15:07;;;;;;;18.73;11.45;;;-4.00;98.20;;;;;;5032067;28;20478;-81
2024/01/23 08:17:33;;;;;;;25.08;14.27;;;-3.90;98.30;;;;;;5033062;28;20402;-83
2024/01/23 08:19:59;;;;;;;24.40;13.93;;;-4.00;98.20;;;;;;5031741;28;20025;-82
2024/01/23 08:22:25;;;;;;;25.90;13.50;;;-4.10;98.30;;;;;;5033211;28;20088;-83
2024/01/23 08:24:51;;;;;;;27.52;14.25;;;-4.00;98.30;;;;;;5032886;28;20470;-82
2024/01/23 08:27:18;;;;;;;16.50;9.63;;;-4.00;98.40;;;;;;5019263;28;20017;-83
2024/01/23 08:29:44;;;;;;;32.63;14.60;;;-4.00;98.40;;;;;;5033500;28;20490;-84
2024/01/23 08:32:10;;;;;;;28.30;14.83;;;-4.00;98.40;;;;;;5033070;28;20017;-82
2024/01/23 08:34:36;;;;;;;29.20;15.45;;;-4.00;98.30;;;;;;5034819;28;20041;-83
2024/01/23 08:37:02;;;;;;;26.90;12.77;;;-4.00;98.20;;;;;;5038327;28;20018;-82
2024/01/23 08:39:28;;;;;;;31.27;17.50;;;-3.90;98.40;;;;;;5042037;28;20033;-82
2024/01/23 08:41:54;;;;;;;30.52;15.50;;;-3.80;98.60;;;;;;5048348;28;20042;-83
2024/01/23 08:44:21;;;;;;;29.58;14.82;;;-3.70;98.60;;;;;;5045459;28;20045;-82
2024/01/23 08:46:48;;;;;;;23.05;13.27;;;-3.80;98.10;;;;;;5039627;28;20051;-82
2024/01/23 08:49:15;;;;;;;34.55;18.40;;;-3.70;98.40;;;;;;5057301;28;20033;-83
2024/01/23 08:51:41;;;;;;;30.05;17.35;;;-3.70;98.40;;;;;;5060617;28;20017;-82
2024/01/23 08:54:07;;;;;;;34.13;13.88;;;-3.60;98.70;;;;;;5060705;28;20025;-82
2024/01/23 08:56:33;;;;;;;29.88;17.13;;;-3.50;98.40;;;;;;5062865;28;20017;-81
2024/01/23 08:58:58;;;;;;;19.88;12.25;;;-3.60;98.30;;;;;;5042237;28;20043;-82
2024/01/23 09:01:24;;;;;;;28.38;14.23;;;-3.40;98.50;;;;;;5057864;28;20028;-83
2024/01/23 09:03:50;;;;;;;26.23;15.70;;;-3.50;98.10;;;;;;5058838;28;20021;-83
2024/01/23 09:06:16;;;;;;;17.92;12.93;;;-3.50;98.30;;;;;;5059805;28;20075;-83
2024/01/23 09:08:42;;;;;;;34.33;16.48;;;-3.50;98.40;;;;;;5045904;28;20140;-85
2024/01/23 09:11:08;;;;;;;33.25;17.05;;;-3.50;98.40;;;;;;5061264;28;20029;-83
2024/01/23 09:13:34;;;;;;;26.15;17.23;;;-3.40;98.50;;;;;;5058035;28;20519;-82
2024/01/23 09:16:00;;;;;;;30.63;16.58;;;-3.40;98.40;;;;;;5057130;28;20181;-84
2024/01/23 09:18:29;;;;;;;28.50;14.88;;;-3.40;98.40;;;;;;5056372;28;20063;-84
2024/01/23 09:20:56;;;;;;;33.15;18.85;;;-3.40;98.40;;;;;;5056125;28;20535;-83
2024/01/23 09:23:22;;;;;;;24.73;14.17;;;-3.40;98.40;;;;;;5056301;28;20513;-82
2024/01/23 09:25:49;;;;;;;25.23;15.65;;;-3.40;98.40;;;;;;5056175;28;20017;-82
2024/01/23 09:28:15;;;;;;;27.50;14.82;;;-3.40;98.30;;;;;;5055316;28;20414;-82
2024/01/23 09:30:43;;;;;;;32.75;16.08;;;-3.40;98.40;;;;;;5056396;28;20024;-83
2024/01/23 09:33:09;;;;;;;30.52;16.98;;;-3.40;98.40;;;;;;5056807;28;20021;-82
2024/01/23 09:35:36;;;;;;;27.90;14.35;;;-3.30;98.60;;;;;;5058328;28;20117;-83
2024/01/23 09:38:03;;;;;;;20.25;11.93;;;-3.30;98.30;;;;;;5061446;28;20032;-82
2024/01/23 09:40:29;;;;;;;28.65;15.90;;;-3.20;98.40;;;;;;5056554;28;20048;-83
2024/01/23 09:42:56;;;;;;;36.45;20.75;;;-3.30;98.50;;;;;;5059092;28;20017;-83
2024/01/23 09:45:30;;;;;;;25.85;15.35;;;-3.20;98.60;;;;;;5055039;28;20037;-84
2024/01/23 09:47:56;;;;;;;23.58;12.38;;;-3.20;98.60;;;;;;5043130;28;20462;-84
2024/01/23 09:50:27;;;;;;;21.33;11.55;;;-3.20;98.30;;;;;;5025126;28;20437;-82
2024/01/23 09:52:55;;;;;;;19.80;12.93;;;-3.30;98.50;;;;;;5053383;28;20544;-83
2024/01/23 09:55:21;;;;;;;25.55;14.10;;;-3.30;98.60;;;;;;5056111;28;20021;-79
2024/01/23 09:57:49;;;;;;;30.83;16.33;;;-3.30;98.50;;;;;;5055928;28;20024;-84
2024/01/23 10:00:14;;;;;;;;;;;-3.30;98.50;;;;;;5056460;28;20028;-85
2024/01/23 10:02:42;;;;;;;31.58;15.85;;;-3.30;98.60;;;;;;5056355;28;20290;-82
2024/01/23 10:05:14;;;;;;;24.15;16.73;;;-3.20;98.70;;;;;;5059569;28;20025;-84
2024/01/23 10:07:40;;;;;;;27.10;15.35;;;-3.20;98.70;;;;;;5040167;28;20032;-84
2024/01/23 10:10:13;;;;;;;32.08;17.48;;;-3.20;98.70;;;;;;5063513;28;20025;-81
2024/01/23 10:12:41;;;;;;;26.13;15.73;;;-3.10;98.80;;;;;;5036273;28;20021;-81
2024/01/23 10:15:10;;;;;;;34.28;15.80;;;-3.10;98.80;;;;;;5057686;28;20021;-83
2024/01/23 10:17:36;;;;;;;28.65;17.42;;;-3.10;98.80;;;;;;5057003;28;20017;-82
2024/01/23 10:20:02;;;;;;;28.25;14.60;;;-3.20;98.60;;;;;;5057267;28;20043;-85
2024/01/23 10:22:28;;;;;;;32.20;16.40;;;-3.20;98.80;;;;;;5057780;28;20036;-81
2024/01/23 10:24:53;;;;;;;32.50;18.10;;;-3.10;99.00;;;;;;5055978;28;20032;-80
2024/01/23 10:27:19;;;;;;;26.23;15.40;;;-3.10;98.90;;;;;;5055318;28;20029;-80
2024/01/23 10:29:45;;;;;;;35.17;17.48;;;-3.10;98.90;;;;;;5039387;28;20555;-83
2024/01/23 10:32:11;;;;;;;28.77;15.73;;;-3.00;99.00;;;;;;5056369;28;20045;-82
2024/01/23 10:34:36;;;;;;;29.30;15.48;;;-3.00;99.10;;;;;;5056298;28;20389;-82
2024/01/23 10:37:02;;;;;;;22.05;12.45;;;-3.00;98.90;;;;;;5055409;28;20029;-85
2024/01/23 10:39:29;;;;;;;25.27;12.55;;;-3.10;98.70;;;;;;5055087;28;20102;-83
2024/01/23 10:41:56;;;;;;;18.95;12.10;;;-3.20;98.80;;;;;;5055126;28;20013;-83
2024/01/23 10:44:28;;;;;;;28.35;14.40;;;-3.20;98.80;;;;;;5055304;28;20537;-84
2024/01/23 10:46:55;;;;;;;31.13;15.30;;;-3.30;99.00;;;;;;5055135;28;20036;-84
2024/01/23 10:49:22;;;;;;;22.50;9.43;;;-3.30;99.20;;;;;;5039156;28;20043;-84
2024/01/23 10:51:51;;;;;;;35.45;18.35;;;-3.30;99.30;;;;;;5055862;28;20402;-86
2024/01/23 10:54:30;;;;;;;33.78;16.70;;;-3.20;99.50;;;;;;5054838;28;20086;-85
2024/01/23 10:56:57;;;;;;;28.00;14.98;;;-3.10;99.60;;;;;;5055197;28;20473;-85
2024/01/23 10:59:29;;;;;;;33.08;14.73;;;-3.20;99.10;;;;;;5037696;28;20024;-83
2024/01/23 11:02:06;;;;;;;29.33;16.13;;;-3.20;99.30;;;;;;5054546;28;20032;-83
2024/01/23 11:04:35;;;;;;;33.97;14.82;;;-3.10;99.50;;;;;;5054636;28;20021;-85
2024/01/23 11:07:43;;;;;;;27.73;12.70;;;-3.10;99.50;;;;;;5054293;28;20029;-84
2024/01/23 11:10:27;;;;;;;23.85;16.13;;;-3.10;99.60;;;;;;5043742;28;20055;-83
2024/01/23 11:13:15;;;;;;;23.20;13.40;;;-3.10;99.70;;;;;;5052181;28;20028;-84
2024/01/23 11:15:41;;;;;;;27.33;14.65;;;-3.00;99.80;;;;;;5055912;28;20132;-84
2024/01/23 11:18:27;;;;;;;33.35;16.92;;;-3.10;99.50;;;;;;5040531;28;20079;-82
2024/01/23 11:21:06;;;;;;;18.90;11.27;;;-3.10;99.80;;;;;;5061727;28;20025;-83
2024/01/23 11:23:32;;;;;;;21.25;11.45;;;-3.00;99.80;;;;;;5056403;28;20029;-84
2024/01/23 11:26:04;;;;;;;22.00;13.07;;;-3.00;99.70;;;;;;5059392;28;20070;-87
2024/01/23 11:28:35;;;;;;;25.58;15.10;;;-3.10;99.70;;;;;;5022803;28;20037;-84
2024/01/23 11:31:07;;;;;;;28.20;13.98;;;-3.10;99.90;;;;;;5035878;28;20022;-85
2024/01/23 11:33:34;;;;;;;33.22;15.68;;;-3.00;99.90;;;;;;5031074;28;20486;-84
2024/01/23 11:36:10;;;;;;;26.03;16.27;;;-3.00;99.90;;;;;;5042163;28;20039;-84
2024/01/23 11:38:47;;;;;;;26.58;16.55;;;-3.00;99.90;;;;;;5064381;28;20053;-84
2024/01/23 11:41:23;;;;;;;26.85;12.00;;;-3.00;99.90;;;;;;5056962;28;20017;-84
2024/01/23 11:43:52;;;;;;;29.65;15.57;;;-3.00;99.90;;;;;;5054920;28;20024;-84
2024/01/23 11:46:19;;;;;;;26.48;13.63;;;-3.00;99.90;;;;;;5054571;28;20048;-84
2024/01/23 11:48:45;;;;;;;29.65;18.35;;;-2.90;99.90;;;;;;5040666;28;20029;-83
2024/01/23 11:51:13;;;;;;;26.52;15.93;;;-3.00;99.90;;;;;;5061217;28;20036;-86
2024/01/23 11:53:41;;;;;;;22.92;11.70;;;-2.90;99.90;;;;;;5063896;28;20071;-85
2024/01/23 11:56:09;;;;;;;34.17;19.30;;;-2.90;99.90;;;;;;5053939;28;20021;-82
2024/01/23 11:58:35;;;;;;;39.97;19.80;;;-3.00;99.90;;;;;;5052205;28;20040;-81
2024/01/23 12:01:02;;;;;;;32.55;17.48;;;-3.00;99.90;;;;;;5054479;28;20029;-83
2024/01/23 12:03:28;;;;;;;;;;;-3.00;99.80;;;;;;5055177;28;20033;-82
2024/01/23 12:05:55;;;;;;;31.30;17.23;;;-3.00;99.90;;;;;;5054241;28;19939;-83
2024/01/23 12:08:22;;;;;;;34.83;18.05;;;-3.00;99.90;;;;;;5056865;28;20037;-84
2024/01/23 12:10:50;;;;;;;33.17;18.80;;;-3.00;99.90;;;;;;5052949;28;20063;-85
2024/01/23 12:13:16;;;;;;;28.85;16.02;;;-3.00;99.90;;;;;;5053058;28;20024;-84
2024/01/23 12:15:41;;;;;;;30.13;15.27;;;-2.90;99.90;;;;;;5035708;28;20374;-84
2024/01/23 12:18:14;;;;;;;32.25;15.23;;;-2.90;99.90;;;;;;5054229;28;20088;-83
2024/01/23 12:20:49;;;;;;;30.40;18.33;;;-3.00;99.90;;;;;;5053499;28;20104;-82
2024/01/23 12:23:18;;;;;;;31.92;18.42;;;-3.00;99.90;;;;;;5041064;28;20071;-87
2024/01/23 12:25:44;;;;;;;29.65;17.08;;;-3.00;99.90;;;;;;5045487;28;20029;-82
2024/01/23 12:28:10;;;;;;;31.17;17.10;;;-3.00;99.90;;;;;;5057498;28;20120;-81
2024/01/23 12:30:36;;;;;;;23.52;13.02;;;-3.00;99.90;;;;;;5060315;28;20021;-82
2024/01/23 12:33:03;;;;;;;28.15;16.90;;;-3.00;99.90;;;;;;5059467;28;20021;-85